createdAt,value
2018-09-20T00:01:39.496Z,4.00
2018-09-20T00:04:08.058Z,4.30
2018-09-20T00:06:36.645Z,4.43
2018-09-20T00:09:06.841Z,4.50
2018-09-20T00:11:35.470Z,4.30
2018-09-20T00:14:04.098Z,5.37
2018-09-20T00:16:32.806Z,5.13
2018-09-20T00:19:01.376Z,4.87
2018-09-20T00:21:29.966Z,5.20
2018-09-20T00:23:58.539Z,4.97
2018-09-20T00:26:27.158Z,5.33
2018-09-20T00:28:55.697Z,5.30
2018-09-20T00:31:24.267Z,4.80
2018-09-20T00:33:52.859Z,5.17
2018-09-20T00:36:21.429Z,4.87
2018-09-20T00:38:49.973Z,4.40
2018-09-20T00:41:18.647Z,5.33
2018-09-20T00:43:47.202Z,5.13
2018-09-20T00:46:15.795Z,5.30
2018-09-20T00:48:44.339Z,5.07
2018-09-20T00:51:12.958Z,4.90
2018-09-20T00:53:41.513Z,5.63
2018-09-20T00:56:10.094Z,5.63
2018-09-20T00:58:38.668Z,5.17
2018-09-20T01:01:07.350Z,4.40
2018-09-20T01:03:35.910Z,5.03
2018-09-20T01:06:04.491Z,5.33
2018-09-20T01:08:33.048Z,5.50
2018-09-20T01:11:01.625Z,4.80
2018-09-20T01:13:30.216Z,5.00
2018-09-20T01:15:58.817Z,6.10
2018-09-20T01:18:27.347Z,4.10
2018-09-20T01:20:55.882Z,5.27
2018-09-20T01:23:24.542Z,5.97
2018-09-20T01:25:53.120Z,4.77
2018-09-20T01:28:21.714Z,5.40
2018-09-20T01:30:50.251Z,5.40
2018-09-20T01:33:25.387Z,5.63
2018-09-20T01:35:53.961Z,5.20
2018-09-20T01:38:22.531Z,5.57
2018-09-20T01:40:51.079Z,5.80
2018-09-20T01:43:19.646Z,5.60
2018-09-20T01:45:48.222Z,5.40
2018-09-20T01:48:16.789Z,4.60
2018-09-20T01:50:45.357Z,5.17
2018-09-20T01:53:13.938Z,4.37
2018-09-20T01:55:42.508Z,5.50
2018-09-20T01:58:11.090Z,5.63
2018-09-20T02:00:39.690Z,5.07
2018-09-20T02:03:08.274Z,5.43
2018-09-20T02:05:37.006Z,5.50
2018-09-20T02:08:05.740Z,5.00
2018-09-20T02:10:34.282Z,5.03
2018-09-20T02:13:03.081Z,5.77
2018-09-20T02:15:32.114Z,5.73
2018-09-20T02:18:00.691Z,5.57
2018-09-20T02:20:29.249Z,6.13
2018-09-20T02:22:57.827Z,5.53
2018-09-20T02:25:26.378Z,4.80
2018-09-20T02:27:55.152Z,5.70
2018-09-20T02:30:23.833Z,5.30
2018-09-20T02:32:52.463Z,5.20
2018-09-20T02:35:21.054Z,5.33
2018-09-20T02:37:49.601Z,5.70
2018-09-20T02:40:18.236Z,5.67
2018-09-20T02:42:46.771Z,6.10
2018-09-20T02:45:15.310Z,6.23
2018-09-20T02:47:43.917Z,5.77
2018-09-20T02:50:12.471Z,6.57
2018-09-20T02:52:40.975Z,5.60
2018-09-20T02:55:09.551Z,5.03
2018-09-20T02:57:38.064Z,5.73
2018-09-20T03:00:06.746Z,5.93
2018-09-20T03:02:38.145Z,5.50
2018-09-20T03:05:06.746Z,6.00
2018-09-20T03:07:35.314Z,5.67
2018-09-20T03:10:03.972Z,5.40
2018-09-20T03:12:32.537Z,6.87
2018-09-20T03:15:01.117Z,5.97
2018-09-20T03:17:29.699Z,6.00
2018-09-20T03:19:58.349Z,6.27
2018-09-20T03:22:26.914Z,5.90
2018-09-20T03:24:55.500Z,5.77
2018-09-20T03:27:24.054Z,5.30
2018-09-20T03:29:52.681Z,5.43
2018-09-20T03:32:21.263Z,5.57
2018-09-20T03:34:49.859Z,6.70
2018-09-20T03:37:18.425Z,6.23
2018-09-20T03:39:46.981Z,7.33
2018-09-20T03:42:15.565Z,5.50
2018-09-20T03:44:44.104Z,6.53
2018-09-20T03:47:12.701Z,6.23
2018-09-20T03:49:41.904Z,5.90
2018-09-20T03:52:10.549Z,5.13
2018-09-20T03:54:39.123Z,5.23
2018-09-20T03:57:07.759Z,6.07
2018-09-20T03:59:36.302Z,6.40
2018-09-20T04:02:04.877Z,5.93
2018-09-20T04:04:33.432Z,5.83
2018-09-20T04:07:02.020Z,5.47
2018-09-20T04:09:30.582Z,5.07
2018-09-20T04:11:59.139Z,5.33
2018-09-20T04:14:27.677Z,6.23
2018-09-20T04:16:56.198Z,5.63
2018-09-20T04:19:24.790Z,6.03
2018-09-20T04:21:53.432Z,6.30
2018-09-20T04:24:21.987Z,7.07
2018-09-20T04:26:50.522Z,6.03
2018-09-20T04:29:19.120Z,5.83
2018-09-20T04:31:47.718Z,5.13
2018-09-20T04:34:16.189Z,6.40
2018-09-20T04:36:44.723Z,5.60
2018-09-20T04:39:13.238Z,6.03
2018-09-20T04:41:41.769Z,5.83
2018-09-20T04:44:10.306Z,6.40
2018-09-20T04:46:38.862Z,5.37
2018-09-20T04:49:07.389Z,6.37
2018-09-20T04:51:35.905Z,6.00
2018-09-20T04:54:04.542Z,6.00
2018-09-20T04:56:33.033Z,5.90
2018-09-20T04:59:01.618Z,6.23
2018-09-20T05:01:30.203Z,5.60
2018-09-20T05:03:58.750Z,6.80
2018-09-20T05:06:27.353Z,5.40
2018-09-20T05:08:56.132Z,6.33
2018-09-20T05:11:24.745Z,5.13
2018-09-20T05:13:53.390Z,5.20
2018-09-20T05:16:21.982Z,5.87
2018-09-20T05:18:50.716Z,6.53
2018-09-20T05:21:19.401Z,6.20
2018-09-20T05:23:47.971Z,6.70
2018-09-20T05:26:16.577Z,5.67
2018-09-20T05:28:45.207Z,6.27
2018-09-20T05:31:13.894Z,5.90
2018-09-20T05:33:44.365Z,5.80
2018-09-20T05:36:12.970Z,5.60
2018-09-20T05:38:41.617Z,6.03
2018-09-20T05:41:10.343Z,5.90
2018-09-20T05:43:38.970Z,6.17
2018-09-20T05:46:07.652Z,6.33
2018-09-20T05:48:36.209Z,5.80
2018-09-20T05:51:04.839Z,6.43
2018-09-20T05:53:33.434Z,5.63
2018-09-20T05:56:02.097Z,6.43
2018-09-20T05:58:30.688Z,4.90
2018-09-20T06:00:59.394Z,6.23
2018-09-20T06:03:28.051Z,6.27
2018-09-20T06:05:56.654Z,6.97
2018-09-20T06:08:25.374Z,6.60
2018-09-20T06:10:54.026Z,6.17
2018-09-20T06:13:22.752Z,6.70
2018-09-20T06:15:51.420Z,7.37
2018-09-20T06:18:20.044Z,7.00
2018-09-20T06:20:48.707Z,7.30
2018-09-20T06:23:17.427Z,7.10
2018-09-20T06:25:46.052Z,6.97
2018-09-20T06:28:14.611Z,6.40
2018-09-20T06:30:43.230Z,5.90
2018-09-20T06:33:11.818Z,6.70
2018-09-20T06:35:40.478Z,6.83
2018-09-20T06:38:09.066Z,7.50
2018-09-20T06:40:37.703Z,7.50
2018-09-20T06:43:06.449Z,6.70
2018-09-20T06:45:35.082Z,7.30
2018-09-20T06:48:03.693Z,6.80
2018-09-20T06:50:32.365Z,7.00
2018-09-20T06:53:00.951Z,7.40
2018-09-20T06:55:29.546Z,7.03
2018-09-20T06:57:58.171Z,8.00
2018-09-20T07:00:26.797Z,7.50
2018-09-20T07:02:55.400Z,6.97
2018-09-20T07:05:24.061Z,7.63
2018-09-20T07:07:52.686Z,7.07
2018-09-20T07:10:21.326Z,7.53
2018-09-20T07:12:50.012Z,7.83
2018-09-20T07:15:18.669Z,7.03
2018-09-20T07:17:47.287Z,6.80
2018-09-20T07:20:15.911Z,8.33
2018-09-20T07:22:45.602Z,7.67
2018-09-20T07:25:14.421Z,6.97
2018-09-20T07:27:43.039Z,7.77
2018-09-20T07:30:11.665Z,6.43
2018-09-20T07:32:40.352Z,7.17
2018-09-20T07:35:09.263Z,6.83
2018-09-20T07:37:37.997Z,6.30
2018-09-20T07:40:06.642Z,6.67
2018-09-20T07:42:35.378Z,6.70
2018-09-20T07:45:04.104Z,6.53
2018-09-20T07:47:32.780Z,7.97
2018-09-20T07:50:01.369Z,6.80
2018-09-20T07:52:29.959Z,6.27
2018-09-20T07:54:58.569Z,5.13
2018-09-20T07:57:29.356Z,5.77
2018-09-20T07:59:59.536Z,5.80
2018-09-20T08:02:28.115Z,6.00
2018-09-20T08:04:56.704Z,5.70
2018-09-20T08:07:25.237Z,6.93
2018-09-20T08:09:53.818Z,5.20
2018-09-20T08:12:22.371Z,5.20
2018-09-20T08:14:51.045Z,5.67
2018-09-20T08:17:19.671Z,5.40
2018-09-20T08:19:48.337Z,5.60
2018-09-20T08:22:16.884Z,5.27
2018-09-20T08:24:45.799Z,5.20
2018-09-20T08:27:14.377Z,5.73
2018-09-20T08:29:42.981Z,4.77
2018-09-20T08:32:11.667Z,4.37
2018-09-20T08:34:40.246Z,4.40
2018-09-20T08:37:08.856Z,3.40
2018-09-20T08:39:37.395Z,3.40
2018-09-20T08:42:06.103Z,4.53
2018-09-20T08:44:34.619Z,4.70
2018-09-20T08:47:03.202Z,4.73
2018-09-20T08:49:31.978Z,4.30
2018-09-20T08:52:00.486Z,4.47
2018-09-20T08:54:29.062Z,4.13
2018-09-20T08:56:57.755Z,4.00
2018-09-20T08:59:26.271Z,4.60
2018-09-20T09:01:54.878Z,3.70
2018-09-20T09:04:23.513Z,3.57
2018-09-20T09:06:52.101Z,4.20
2018-09-20T09:09:20.695Z,4.37
2018-09-20T09:11:49.436Z,4.00
2018-09-20T09:14:18.089Z,4.07
2018-09-20T09:16:46.709Z,3.80
2018-09-20T09:19:15.311Z,4.33
2018-09-20T09:21:43.998Z,3.90
2018-09-20T09:24:12.775Z,3.50
2018-09-20T09:26:41.407Z,3.93
2018-09-20T09:29:10.027Z,3.60
2018-09-20T09:31:38.687Z,3.80
2018-09-20T09:34:07.342Z,3.30
2018-09-20T09:36:36.043Z,3.60
2018-09-20T09:39:07.054Z,3.60
2018-09-20T09:41:35.661Z,3.90
2018-09-20T09:44:04.355Z,4.30
2018-09-20T09:46:33.024Z,3.60
2018-09-20T09:49:01.716Z,3.07
2018-09-20T09:51:30.329Z,3.40
2018-09-20T09:53:59.060Z,3.17
2018-09-20T09:56:27.756Z,3.87
2018-09-20T09:58:56.418Z,3.73
2018-09-20T10:01:25.074Z,3.57
2018-09-20T10:03:53.711Z,2.97
2018-09-20T10:06:22.323Z,3.07
2018-09-20T10:08:50.896Z,3.63
2018-09-20T10:11:19.534Z,3.40
2018-09-20T10:13:48.258Z,3.33
2018-09-20T10:16:16.861Z,3.50
2018-09-20T10:18:45.518Z,3.53
2018-09-20T10:21:14.196Z,3.40
2018-09-20T10:23:42.898Z,3.77
2018-09-20T10:26:11.571Z,4.30
2018-09-20T10:28:40.190Z,4.23
2018-09-20T10:31:08.874Z,3.27
2018-09-20T10:33:37.511Z,3.33
2018-09-20T10:36:06.357Z,3.47
2018-09-20T10:38:35.072Z,5.20
2018-09-20T10:41:03.761Z,4.17
2018-09-20T10:43:32.385Z,4.50
2018-09-20T10:46:01.236Z,4.40
2018-09-20T10:48:29.837Z,3.47
2018-09-20T10:50:58.642Z,3.63
2018-09-20T10:53:27.594Z,4.57
2018-09-20T10:55:56.419Z,3.90
2018-09-20T10:58:25.194Z,3.80
2018-09-20T11:00:53.775Z,3.83
2018-09-20T11:03:22.450Z,3.67
2018-09-20T11:05:51.023Z,4.17
2018-09-20T11:08:19.582Z,3.93
2018-09-20T11:10:48.224Z,4.20
2018-09-20T11:13:16.823Z,4.20
2018-09-20T11:15:45.410Z,3.37
2018-09-20T11:18:13.931Z,3.83
2018-09-20T11:20:42.515Z,4.20
2018-09-20T11:23:11.123Z,4.17
2018-09-20T11:25:39.743Z,4.20
2018-09-20T11:28:08.291Z,3.63
2018-09-20T11:30:36.869Z,3.93
2018-09-20T11:33:05.489Z,4.00
2018-09-20T11:35:34.133Z,4.07
2018-09-20T11:38:02.682Z,4.20
2018-09-20T11:40:31.469Z,4.00
2018-09-20T11:43:00.298Z,3.77
2018-09-20T11:45:29.004Z,3.83
2018-09-20T11:47:57.693Z,4.10
2018-09-20T11:50:26.266Z,4.13
2018-09-20T11:52:54.830Z,3.80
2018-09-20T11:55:23.564Z,4.00
2018-09-20T11:57:52.163Z,3.70
2018-09-20T12:00:22.025Z,3.70
2018-09-20T12:02:52.357Z,4.40
2018-09-20T12:05:21.417Z,3.47
2018-09-20T12:07:50.081Z,3.10
2018-09-20T12:10:19.198Z,3.47
2018-09-20T12:12:48.180Z,3.87
2018-09-20T12:15:16.863Z,3.70
2018-09-20T12:17:45.620Z,3.77
2018-09-20T12:20:14.282Z,3.40
2018-09-20T12:22:42.975Z,3.40
2018-09-20T12:25:11.615Z,3.70
2018-09-20T12:27:40.234Z,3.53
2018-09-20T12:30:08.919Z,3.17
2018-09-20T12:32:37.552Z,3.67
2018-09-20T12:35:06.151Z,4.07
2018-09-20T12:37:36.397Z,3.50
2018-09-20T12:40:06.515Z,3.37
2018-09-20T12:42:35.163Z,3.40
2018-09-20T12:45:03.846Z,3.03
2018-09-20T12:47:33.037Z,3.10
2018-09-20T12:50:01.599Z,2.90
2018-09-20T12:52:30.263Z,3.80
2018-09-20T12:54:58.843Z,3.73
2018-09-20T12:57:27.485Z,3.50
2018-09-20T12:59:56.195Z,3.30
2018-09-20T13:02:24.886Z,3.60
2018-09-20T13:04:53.513Z,3.60
2018-09-20T13:07:22.153Z,3.30
2018-09-20T13:09:50.775Z,3.47
2018-09-20T13:12:19.503Z,3.53
2018-09-20T13:14:48.194Z,3.60
2018-09-20T13:17:17.127Z,4.00
2018-09-20T13:19:45.689Z,3.70
2018-09-20T13:22:14.587Z,3.03
2018-09-20T13:24:43.391Z,3.20
2018-09-20T13:27:11.936Z,3.70
2018-09-20T13:29:40.598Z,3.60
2018-09-20T13:32:09.194Z,3.30
2018-09-20T13:34:37.968Z,3.50
2018-09-20T13:37:06.658Z,2.93
2018-09-20T13:39:35.361Z,3.07
2018-09-20T13:42:04.039Z,3.43
2018-09-20T13:44:32.638Z,3.50
2018-09-20T13:47:01.287Z,3.30
2018-09-20T13:49:29.962Z,3.27
2018-09-20T13:51:58.660Z,3.47
2018-09-20T13:54:27.261Z,3.60
2018-09-20T13:56:55.914Z,3.00
2018-09-20T13:59:24.625Z,3.70
2018-09-20T14:01:53.300Z,2.97
2018-09-20T14:04:22.222Z,3.23
2018-09-20T14:06:50.866Z,3.70
2018-09-20T14:09:19.646Z,2.97
2018-09-20T14:11:48.190Z,3.73
2018-09-20T14:14:16.825Z,2.83
2018-09-20T14:16:45.381Z,4.20
2018-09-20T14:19:13.967Z,3.77
2018-09-20T14:21:42.570Z,3.37
2018-09-20T14:24:11.159Z,3.80
2018-09-20T14:26:39.890Z,3.57
2018-09-20T14:29:08.564Z,4.27
2018-09-20T14:31:37.108Z,3.27
2018-09-20T14:34:05.670Z,3.27
2018-09-20T14:36:34.296Z,3.27
2018-09-20T14:39:02.978Z,3.93
2018-09-20T14:41:31.559Z,3.97
2018-09-20T14:44:00.127Z,3.20
2018-09-20T14:46:28.690Z,3.20
2018-09-20T14:48:57.219Z,3.20
2018-09-20T14:51:25.784Z,3.23
2018-09-20T14:53:54.314Z,3.37
2018-09-20T14:56:22.881Z,2.73
2018-09-20T14:58:51.416Z,3.20
2018-09-20T15:01:20.039Z,3.23
2018-09-20T15:03:49.748Z,3.90
2018-09-20T15:06:19.407Z,3.20
2018-09-20T15:08:48.127Z,2.60
2018-09-20T15:11:16.802Z,3.30
2018-09-20T15:13:45.464Z,3.90
2018-09-20T15:16:14.147Z,3.10
2018-09-20T15:18:42.721Z,3.90
2018-09-20T15:21:11.399Z,3.13
2018-09-20T15:23:40.034Z,2.90
2018-09-20T15:26:08.667Z,2.90
2018-09-20T15:28:37.315Z,3.10
2018-09-20T15:31:06.187Z,3.53
2018-09-20T15:33:34.839Z,2.83
2018-09-20T15:36:03.446Z,3.30
2018-09-20T15:38:32.065Z,3.00
2018-09-20T15:41:38.973Z,2.93
2018-09-20T15:44:07.766Z,3.30
2018-09-20T15:46:36.433Z,3.50
2018-09-20T15:49:05.268Z,2.70
2018-09-20T15:51:33.909Z,3.13
2018-09-20T15:54:02.538Z,3.00
2018-09-20T15:56:31.306Z,2.73
2018-09-20T15:58:59.878Z,3.27
2018-09-20T16:01:28.484Z,3.53
2018-09-20T16:03:57.032Z,2.90
2018-09-20T16:06:25.559Z,3.30
2018-09-20T16:08:54.123Z,3.23
2018-09-20T16:11:22.638Z,2.67
2018-09-20T16:13:51.271Z,2.97
2018-09-20T16:16:19.807Z,2.50
2018-09-20T16:18:48.357Z,2.40
2018-09-20T16:21:16.924Z,2.60
2018-09-20T16:23:45.476Z,2.93
2018-09-20T16:26:14.014Z,2.93
2018-09-20T16:28:56.997Z,3.10
2018-09-20T16:31:39.205Z,3.30
2018-09-20T16:34:31.328Z,2.93
2018-09-20T16:37:10.942Z,2.73
2018-09-20T16:39:40.416Z,2.80
2018-09-20T16:42:09.701Z,2.20
2018-09-20T16:44:38.285Z,2.90
2018-09-20T16:47:06.917Z,2.10
2018-09-20T16:49:35.518Z,2.60
2018-09-20T16:52:04.090Z,2.70
2018-09-20T16:54:32.632Z,3.00
2018-09-20T16:57:01.209Z,2.77
2018-09-20T16:59:29.781Z,2.80
2018-09-20T17:01:58.346Z,2.80
2018-09-20T17:04:26.943Z,2.67
2018-09-20T17:06:55.451Z,2.93
2018-09-20T17:09:24.030Z,2.90
2018-09-20T17:11:52.586Z,2.60
2018-09-20T17:14:21.137Z,3.43
2018-09-20T17:16:49.740Z,3.00
2018-09-20T17:19:18.302Z,3.20
2018-09-20T17:21:46.845Z,3.20
2018-09-20T17:24:15.382Z,3.20
2018-09-20T17:26:43.929Z,3.03
2018-09-20T17:29:12.470Z,3.87
2018-09-20T17:31:40.985Z,3.00
2018-09-20T17:34:09.504Z,2.80
2018-09-20T17:36:38.306Z,3.80
2018-09-20T17:39:10.395Z,2.33
2018-09-20T17:41:39.836Z,2.80
2018-09-20T17:44:09.104Z,2.70
2018-09-20T17:46:37.665Z,3.20
2018-09-20T17:49:06.304Z,3.20
2018-09-20T17:51:35.316Z,3.47
2018-09-20T17:54:04.011Z,2.90
2018-09-20T17:56:33.024Z,2.93
2018-09-20T17:59:01.874Z,3.90
2018-09-20T18:01:30.491Z,3.00
2018-09-20T18:03:59.058Z,3.17
2018-09-20T18:06:27.641Z,3.67
2018-09-20T18:08:56.195Z,3.10
2018-09-20T18:11:24.802Z,3.80
2018-09-20T18:13:53.408Z,3.90
2018-09-20T18:16:21.993Z,4.13
2018-09-20T18:18:50.610Z,3.37
2018-09-20T18:21:19.195Z,3.30
2018-09-20T18:23:47.782Z,3.80
2018-09-20T18:26:16.334Z,3.87
2018-09-20T18:28:44.932Z,3.47
2018-09-20T18:31:13.498Z,4.03
2018-09-20T18:33:42.073Z,3.57
2018-09-20T18:36:10.645Z,3.77
2018-09-20T18:38:39.234Z,4.00
2018-09-20T18:41:07.794Z,3.73
2018-09-20T18:43:36.416Z,5.00
2018-09-20T18:46:05.038Z,4.57
2018-09-20T18:48:33.613Z,3.83
2018-09-20T18:51:02.186Z,4.23
2018-09-20T18:53:30.770Z,4.70
2018-09-20T18:55:59.326Z,3.67
2018-09-20T18:58:27.922Z,4.20
2018-09-20T19:00:56.531Z,4.43
2018-09-20T19:03:25.129Z,4.50
2018-09-20T19:05:53.692Z,3.83
2018-09-20T19:08:22.279Z,4.10
2018-09-20T19:10:50.964Z,4.20
2018-09-20T19:13:19.585Z,3.70
2018-09-20T19:15:48.198Z,4.20
2018-09-20T19:18:16.822Z,4.20
2018-09-20T19:20:45.448Z,3.67
2018-09-20T19:23:14.191Z,3.20
2018-09-20T19:25:42.813Z,5.30
2018-09-20T19:28:11.375Z,4.27
2018-09-20T19:30:40.006Z,3.33
2018-09-20T19:33:08.618Z,4.20
2018-09-20T19:35:37.213Z,4.23
2018-09-20T19:38:05.857Z,3.73
2018-09-20T19:40:34.443Z,3.80
2018-09-20T19:43:03.007Z,4.10
2018-09-20T19:45:31.607Z,5.10
2018-09-20T19:48:00.162Z,4.40
2018-09-20T19:50:28.786Z,4.00
2018-09-20T19:52:57.360Z,4.23
2018-09-20T19:55:25.935Z,4.80
2018-09-20T19:57:54.481Z,6.00
2018-09-20T20:00:23.115Z,4.40
2018-09-20T20:02:51.940Z,4.70
2018-09-20T20:05:20.537Z,4.40
2018-09-20T20:07:49.166Z,4.33
2018-09-20T20:10:17.789Z,4.67
2018-09-20T20:12:46.374Z,4.63
2018-09-20T20:15:14.958Z,4.60
2018-09-20T20:17:43.514Z,4.57
2018-09-20T20:20:12.118Z,4.70
2018-09-20T20:22:40.687Z,4.30
2018-09-20T20:25:09.643Z,3.97
2018-09-20T20:27:38.292Z,4.20
2018-09-20T20:30:06.960Z,4.47
2018-09-20T20:32:35.636Z,4.30
2018-09-20T20:35:04.286Z,4.40
2018-09-20T20:37:32.845Z,4.17
2018-09-20T20:40:01.430Z,4.27
2018-09-20T20:42:30.077Z,4.00
2018-09-20T20:44:58.636Z,4.67
2018-09-20T20:47:27.221Z,4.37
2018-09-20T20:49:55.793Z,4.93
2018-09-20T20:52:24.446Z,4.30
2018-09-20T20:54:53.027Z,4.43
2018-09-20T20:57:21.639Z,4.17
2018-09-20T20:59:50.244Z,3.90
2018-09-20T21:02:18.795Z,4.77
2018-09-20T21:04:47.329Z,4.20
2018-09-20T21:07:15.865Z,4.33
2018-09-20T21:09:44.354Z,3.93
2018-09-20T21:12:12.962Z,5.00
2018-09-20T21:14:41.575Z,5.10
2018-09-20T21:17:10.096Z,4.70
2018-09-20T21:19:38.561Z,4.80
2018-09-20T21:22:07.175Z,4.23
2018-09-20T21:24:35.735Z,4.10
2018-09-20T21:27:04.311Z,4.83
2018-09-20T21:29:32.822Z,4.57
2018-09-20T21:32:01.388Z,4.10
2018-09-20T21:34:29.906Z,4.60
2018-09-20T21:36:58.440Z,4.40
2018-09-20T21:39:27.005Z,4.23
2018-09-20T21:41:55.516Z,4.23
2018-09-20T21:44:24.036Z,4.43
2018-09-20T21:46:52.562Z,4.60
2018-09-20T21:49:21.098Z,4.70
2018-09-20T21:51:49.622Z,4.40
2018-09-20T21:54:18.161Z,4.23
2018-09-20T21:56:46.715Z,3.90
2018-09-20T21:59:15.304Z,4.73
2018-09-20T22:01:49.178Z,4.60
2018-09-20T22:04:17.683Z,4.90
2018-09-20T22:06:46.175Z,4.40
2018-09-20T22:09:14.725Z,3.87
2018-09-20T22:11:43.217Z,4.93
2018-09-20T22:14:11.763Z,4.63
2018-09-20T22:16:40.306Z,4.70
2018-09-20T22:19:08.823Z,4.40
2018-09-20T22:21:37.330Z,4.93
2018-09-20T22:24:05.863Z,5.90
2018-09-20T22:26:34.402Z,4.83
2018-09-20T22:29:02.955Z,4.97
2018-09-20T22:31:31.458Z,5.03
2018-09-20T22:33:59.992Z,4.67
2018-09-20T22:36:28.481Z,5.33
2018-09-20T22:38:56.978Z,4.30
2018-09-20T22:41:25.489Z,4.33
2018-09-20T22:43:54.054Z,4.53
2018-09-20T22:46:22.572Z,4.50
2018-09-20T22:48:51.086Z,5.00
2018-09-20T22:51:19.639Z,4.20
2018-09-20T22:53:48.149Z,5.40
2018-09-20T22:56:16.659Z,4.00
2018-09-20T22:58:45.157Z,4.47
2018-09-20T23:01:16.861Z,4.83
2018-09-20T23:03:45.934Z,4.70
2018-09-20T23:06:14.496Z,4.60
2018-09-20T23:08:43.095Z,4.17
2018-09-20T23:11:11.670Z,5.10
2018-09-20T23:13:40.294Z,4.33
2018-09-20T23:16:08.888Z,5.23
2018-09-20T23:18:37.506Z,4.93
2018-09-20T23:21:06.236Z,5.57
2018-09-20T23:23:34.798Z,4.70
2018-09-20T23:26:03.384Z,5.00
2018-09-20T23:28:31.945Z,4.77
2018-09-20T23:31:00.535Z,4.77
2018-09-20T23:33:29.081Z,4.50
2018-09-20T23:35:57.659Z,5.00
2018-09-20T23:38:26.200Z,5.97
2018-09-20T23:40:54.796Z,6.00
2018-09-20T23:43:23.340Z,4.87
2018-09-20T23:45:51.884Z,4.83
2018-09-20T23:48:20.488Z,4.70
2018-09-20T23:50:49.086Z,4.63
2018-09-20T23:53:17.673Z,4.73
2018-09-20T23:55:46.220Z,5.67
2018-09-20T23:58:14.793Z,4.63
